Ridgeway, WV (25440)

5:45 AM EST on December 19, 2014 (GMT -0500)
Snowden Bridge | Change Station
CLOSE
Current Station
Personal Weather Station
Location: Stephenson, VA
Elevation: 616 ft
Nearby Weather Stations

Elev 616 ft 39.22 °N, 78.10 °W | Updated 1 minute ago

Overcast
Overcast
31.5 °F
Feels Like 32 °F
N
3.0
Wind Variable Wind from WNW
Gusts 9.0 mph

Today
High -- | Low -- °F
--% Chance of Precip.
Yesterday
High -- | Low -- °F
Precip. -- in
7:27 AM 4:51 PM
Waning Crescent, 8% visible
Pressure 30.12 in
Visibility 10.0 miles
Clouds Overcast 3100 ft
Windchill 32 °F
Dew Point 23 °F
Humidity 71%
Rainfall 0.00 in
Snow Depth Not available.
UV 0 out of 12
Pollen .10 out of 12
Air Quality Not available.
Flu Activity Not available.
METAR KMRB 190953Z AUTO 28008KT 10SM OVC031 01/M07 A3011 RMK AO2 SLP200 T00111072 TSNO

More Conditions Fewer Conditions

Pressure 30.12 in
Visibility 10.0 miles
Clouds Overcast 3100 ft
Windchill 32 °F
Dew Point 23 °F
Humidity 71%
Rainfall 0.00 in
Snow Depth Not available.
UV 0 out of 12
Pollen .10 out of 12
Air Quality Not available.
Flu Activity Not available.
METAR KMRB 190953Z AUTO 28008KT 10SM OVC031 01/M07 A3011 RMK AO2 SLP200 T00111072 TSNO

More Conditions Fewer Conditions

10-Day Weather Forecast

Almanac

Astronomy

Dec. 19, 2014 Rise Set
Actual Time
Civil Twilight
Nautical Twilight
Astronomical Twilight
Moon
Length of Visible Light
Length of Day
Tomorrow will be .
, % of the Moon is Illuminated

Today's Extremes

State Highs State Lows

Community

WunderPhotos

Upload Photos

1,778,966 photos uploaded!

WunderBlogs® & News

Nearby

Air Quality

  Air Quality AQ Index Pollutant
Not available.

Snow Depth

Station Depth Elevation

Earthquake Activity

City Distance Mag. Time & Date
Minimum magnitude displayed is 2.5.

Coastal Water Temperatures

Place Temperature

Nearby Weather Stations